createdAt,value
2023-11-01T00:01:28.194Z,100.00
2023-11-01T00:03:58.104Z,100.00
2023-11-01T00:06:27.955Z,100.00
2023-11-01T00:08:59.454Z,100.00
2023-11-01T00:11:29.306Z,100.00
2023-11-01T00:13:59.077Z,100.00
2023-11-01T00:16:31.509Z,100.00
2023-11-01T00:19:01.297Z,100.00
2023-11-01T00:21:31.125Z,100.00
2023-11-01T00:24:01.447Z,100.00
2023-11-01T00:26:31.209Z,100.00
2023-11-01T00:29:01.273Z,100.00
2023-11-01T00:31:33.748Z,100.00
2023-11-01T00:34:03.553Z,100.00
2023-11-01T00:36:33.381Z,100.00
2023-11-01T00:39:03.254Z,100.00
2023-11-01T00:41:34.300Z,100.00
2023-11-01T00:44:04.104Z,100.00
2023-11-01T00:46:36.543Z,100.00
2023-11-01T00:49:06.422Z,100.00
2023-11-01T00:51:36.492Z,100.00
2023-11-01T00:54:07.194Z,100.00
2023-11-01T00:56:37.102Z,100.00
2023-11-01T00:59:06.985Z,100.00
2023-11-01T01:01:39.311Z,100.00
2023-11-01T01:04:09.270Z,100.00
2023-11-01T01:06:39.498Z,100.00
2023-11-01T01:09:15.671Z,100.00
2023-11-01T01:11:47.665Z,100.00
2023-11-01T01:14:19.083Z,100.00
2023-11-01T01:16:51.631Z,100.00
2023-11-01T01:19:23.406Z,100.00
2023-11-01T01:21:53.245Z,100.00
2023-11-01T01:24:23.208Z,100.00
2023-11-01T01:26:52.983Z,100.00
2023-11-01T01:29:22.873Z,100.00
2023-11-01T01:31:55.257Z,100.00
2023-11-01T01:34:25.010Z,100.00
2023-11-01T01:36:54.808Z,100.00
2023-11-01T01:39:24.611Z,100.00
2023-11-01T01:41:54.446Z,100.00
2023-11-01T01:44:24.337Z,100.00
2023-11-01T01:46:59.066Z,100.00
2023-11-01T01:49:33.339Z,100.00
2023-11-01T01:52:09.878Z,100.00
2023-11-01T01:54:40.790Z,100.00
2023-11-01T01:57:11.065Z,100.00
2023-11-01T01:59:41.030Z,100.00
2023-11-01T02:02:13.966Z,100.00
2023-11-01T02:04:43.775Z,100.00
2023-11-01T02:07:13.768Z,100.00
2023-11-01T02:09:43.728Z,100.00
2023-11-01T02:12:13.667Z,100.00
2023-11-01T02:14:43.554Z,100.00
2023-11-01T02:17:16.094Z,100.00
2023-11-01T02:19:46.042Z,100.00
2023-11-01T02:22:15.825Z,100.00
2023-11-01T02:24:48.549Z,100.00
2023-11-01T02:27:18.407Z,100.00
2023-11-01T02:29:49.146Z,100.00
2023-11-01T02:32:19.003Z,100.00
2023-11-01T02:34:48.864Z,100.00
2023-11-01T02:37:18.680Z,100.00
2023-11-01T02:39:51.054Z,100.00
2023-11-01T02:42:20.818Z,100.00
2023-11-01T02:44:50.574Z,100.00
2023-11-01T02:47:20.383Z,100.00
2023-11-01T02:49:50.238Z,100.00
2023-11-01T02:52:20.033Z,100.00
2023-11-01T02:54:52.709Z,100.00
2023-11-01T02:57:22.484Z,100.00
2023-11-01T02:59:52.313Z,100.00
2023-11-01T03:02:22.139Z,100.00
2023-11-01T03:04:51.910Z,100.00
2023-11-01T03:07:21.757Z,100.00
2023-11-01T03:09:54.215Z,100.00
2023-11-01T03:12:24.011Z,100.00
2023-11-01T03:14:53.777Z,100.00
2023-11-01T03:17:23.615Z,100.00
2023-11-01T03:19:53.443Z,100.00
2023-11-01T03:22:24.423Z,100.00
2023-11-01T03:24:56.866Z,100.00
2023-11-01T03:27:26.674Z,100.00
2023-11-01T03:29:57.334Z,100.00
2023-11-01T03:32:27.200Z,100.00
2023-11-01T03:34:57.073Z,100.00
2023-11-01T03:37:26.894Z,100.00
2023-11-01T03:39:59.271Z,100.00
2023-11-01T03:42:29.053Z,100.00
2023-11-01T03:44:59.458Z,100.00
2023-11-01T03:47:30.506Z,100.00
2023-11-01T03:50:01.749Z,100.00
2023-11-01T03:52:31.689Z,100.00
2023-11-01T03:55:04.475Z,100.00
2023-11-01T03:57:34.451Z,100.00
2023-11-01T04:00:04.890Z,100.00
2023-11-01T04:02:34.745Z,100.00
2023-11-01T04:05:05.409Z,100.00
2023-11-01T04:07:35.223Z,100.00
2023-11-01T04:10:11.195Z,100.00
2023-11-01T04:12:41.102Z,100.00
2023-11-01T04:15:14.041Z,100.00
2023-11-01T04:17:43.851Z,100.00
2023-11-01T04:20:14.689Z,100.00
2023-11-01T04:22:44.580Z,100.00
2023-11-01T04:25:16.956Z,100.00
2023-11-01T04:27:48.392Z,100.00
2023-11-01T04:30:19.477Z,100.00
2023-11-01T04:32:50.902Z,100.00
2023-11-01T04:35:21.158Z,100.00
2023-11-01T04:37:51.005Z,100.00
2023-11-01T04:40:23.390Z,100.00
2023-11-01T04:42:53.178Z,100.00
2023-11-01T04:45:23.148Z,100.00
2023-11-01T04:47:52.979Z,100.00
2023-11-01T04:50:23.218Z,100.00
2023-11-01T04:52:53.026Z,100.00
2023-11-01T04:55:25.667Z,100.00
2023-11-01T04:57:55.408Z,100.00
2023-11-01T05:00:25.565Z,100.00
2023-11-01T05:02:55.794Z,100.00
2023-11-01T05:05:25.904Z,100.00
2023-11-01T05:07:56.254Z,100.00
2023-11-01T05:10:28.803Z,100.00
2023-11-01T05:12:56.015Z,100.00
2023-11-01T05:15:25.787Z,100.00
2023-11-01T05:17:55.626Z,100.00
2023-11-01T05:20:25.460Z,100.00
2023-11-01T05:22:55.289Z,100.00
2023-11-01T05:25:30.067Z,100.00
2023-11-01T05:28:03.150Z,100.00
2023-11-01T05:30:32.996Z,100.00
2023-11-01T05:33:03.213Z,100.00
2023-11-01T05:35:38.006Z,100.00
2023-11-01T05:38:09.529Z,100.00
2023-11-01T05:40:39.350Z,100.00
2023-11-01T05:43:12.014Z,100.00
2023-11-01T05:45:42.057Z,100.00
2023-11-01T05:48:11.949Z,100.00
2023-11-01T05:50:42.751Z,100.00
2023-11-01T05:53:12.595Z,100.00
2023-11-01T05:55:54.506Z,100.00
2023-11-01T05:58:35.077Z,100.00
2023-11-01T06:01:04.904Z,100.00
2023-11-01T06:03:34.888Z,100.00
2023-11-01T06:06:04.816Z,100.00
2023-11-01T06:08:34.720Z,100.00
2023-11-01T06:11:04.588Z,100.00
2023-11-01T06:13:37.236Z,100.00
2023-11-01T06:16:09.219Z,100.00
2023-11-01T06:18:38.959Z,100.00
2023-11-01T06:21:09.470Z,100.00
2023-11-01T06:23:39.807Z,100.00
2023-11-01T06:26:09.788Z,100.00
2023-11-01T06:28:42.173Z,100.00
2023-11-01T06:31:12.071Z,100.00
2023-11-01T06:33:42.109Z,100.00
2023-11-01T06:36:12.587Z,100.00
2023-11-01T06:38:42.389Z,100.00
2023-11-01T06:41:12.466Z,100.00
2023-11-01T06:43:45.480Z,100.00
2023-11-01T06:46:15.485Z,100.00
2023-11-01T06:48:45.473Z,100.00
2023-11-01T06:51:15.716Z,100.00
2023-11-01T06:53:45.772Z,100.00
2023-11-01T06:56:15.638Z,100.00
2023-11-01T06:58:48.003Z,100.00
2023-11-01T07:01:17.777Z,100.00
2023-11-01T07:03:47.721Z,100.00
2023-11-01T07:06:17.547Z,100.00
2023-11-01T07:08:48.013Z,100.00
2023-11-01T07:11:20.186Z,100.00
2023-11-01T07:13:52.790Z,100.00
2023-11-01T07:16:22.564Z,100.00
2023-11-01T07:18:52.337Z,100.00
2023-11-01T07:21:22.339Z,100.00
2023-11-01T07:23:52.321Z,100.00
2023-11-01T07:26:22.290Z,100.00
2023-11-01T07:28:54.826Z,100.00
2023-11-01T07:31:24.634Z,100.00
2023-11-01T07:33:54.792Z,100.00
2023-11-01T07:36:24.970Z,100.00
2023-11-01T07:38:54.911Z,100.00
2023-11-01T07:41:24.761Z,100.00
2023-11-01T07:43:57.141Z,100.00
2023-11-01T07:46:26.960Z,100.00
2023-11-01T07:48:56.711Z,100.00
2023-11-01T07:51:26.687Z,100.00
2023-11-01T07:53:57.283Z,100.00
2023-11-01T07:56:27.093Z,100.00
2023-11-01T07:58:59.451Z,100.00
2023-11-01T08:01:29.330Z,100.00
2023-11-01T08:03:59.252Z,100.00
2023-11-01T08:06:29.108Z,100.00
2023-11-01T08:08:59.724Z,100.00
2023-11-01T08:11:29.541Z,100.00
2023-11-01T08:14:01.949Z,100.00
2023-11-01T08:16:32.069Z,100.00
2023-11-01T08:19:01.935Z,100.00
2023-11-01T08:21:33.638Z,100.00
2023-11-01T08:24:03.493Z,100.00
2023-11-01T08:26:33.324Z,100.00
2023-11-01T08:29:05.868Z,100.00
2023-11-01T08:31:35.705Z,100.00
2023-11-01T08:34:05.684Z,100.00
2023-11-01T08:36:35.543Z,100.00
2023-11-01T08:39:05.407Z,100.00
2023-11-01T08:41:35.284Z,100.00
2023-11-01T08:44:08.221Z,100.00
2023-11-01T08:46:38.001Z,99.98
2023-11-01T08:49:07.764Z,98.79
2023-11-01T08:51:39.473Z,98.40
2023-11-01T08:54:10.607Z,97.28
2023-11-01T08:56:40.507Z,96.31
2023-11-01T08:59:12.945Z,95.94
2023-11-01T09:01:42.907Z,95.49
2023-11-01T09:04:15.055Z,94.86
2023-11-01T09:06:44.975Z,93.39
2023-11-01T09:09:15.209Z,93.35
2023-11-01T09:11:46.158Z,92.04
2023-11-01T09:14:18.586Z,91.51
2023-11-01T09:16:48.381Z,90.70
2023-11-01T09:19:18.175Z,91.69
2023-11-01T09:21:48.394Z,92.18
2023-11-01T09:24:18.165Z,92.16
2023-11-01T09:26:48.591Z,92.03
2023-11-01T09:29:21.090Z,91.50
2023-11-01T09:31:50.931Z,91.49
2023-11-01T09:34:20.859Z,91.36
2023-11-01T09:36:50.672Z,91.38
2023-11-01T09:39:20.627Z,90.36
2023-11-01T09:41:53.879Z,90.70
2023-11-01T09:44:26.313Z,91.13
2023-11-01T09:46:56.249Z,91.53
2023-11-01T09:49:26.356Z,91.59
2023-11-01T09:51:56.316Z,91.63
2023-11-01T09:54:26.285Z,91.94
2023-11-01T09:56:59.081Z,92.00
2023-11-01T09:59:33.837Z,92.24
2023-11-01T10:02:03.791Z,92.16
2023-11-01T10:04:35.792Z,92.06
2023-11-01T10:07:05.610Z,91.99
2023-11-01T10:09:35.434Z,92.05
2023-11-01T10:12:09.167Z,91.15
2023-11-01T10:14:41.651Z,90.88
2023-11-01T10:17:11.521Z,90.90
2023-11-01T10:19:45.465Z,89.77
2023-11-01T10:22:15.271Z,89.99
2023-11-01T10:24:45.585Z,90.00
2023-11-01T10:27:15.428Z,90.51
2023-11-01T10:29:49.329Z,89.58
2023-11-01T10:32:18.998Z,89.73
2023-11-01T10:34:48.811Z,89.54
2023-11-01T10:37:25.763Z,89.14
2023-11-01T10:39:57.044Z,88.92
2023-11-01T10:42:27.090Z,88.93
2023-11-01T10:44:59.539Z,87.59
2023-11-01T10:47:29.534Z,86.81
2023-11-01T10:50:00.830Z,86.17
2023-11-01T10:52:31.174Z,85.79
2023-11-01T10:55:02.203Z,85.16
2023-11-01T10:57:32.314Z,85.04
2023-11-01T11:00:14.039Z,84.41
2023-11-01T11:02:50.881Z,83.88
2023-11-01T11:05:31.281Z,84.00
2023-11-01T11:08:01.144Z,83.88
2023-11-01T11:10:34.436Z,84.30
2023-11-01T11:13:29.968Z,84.33
2023-11-01T11:16:01.467Z,85.06
2023-11-01T11:18:53.242Z,85.73
2023-11-01T11:21:53.143Z,86.44
2023-11-01T11:24:56.879Z,86.18
2023-11-01T11:27:57.143Z,86.93
2023-11-01T11:31:07.435Z,87.26
2023-11-01T11:33:38.348Z,86.52
2023-11-01T11:36:16.281Z,86.51
2023-11-01T11:38:53.818Z,86.71
2023-11-01T11:41:25.172Z,87.04
2023-11-01T11:44:12.492Z,86.33
2023-11-01T11:46:43.637Z,85.59
2023-11-01T11:49:24.410Z,85.85
2023-11-01T11:51:55.834Z,85.86
2023-11-01T11:54:27.640Z,85.85
2023-11-01T11:56:57.921Z,85.94
2023-11-01T11:59:31.462Z,86.14
2023-11-01T12:02:11.435Z,86.35
2023-11-01T12:04:44.221Z,86.69
2023-11-01T12:07:20.033Z,86.59
2023-11-01T12:09:53.401Z,86.19
2023-11-01T12:12:23.315Z,86.56
2023-11-01T12:15:03.237Z,86.43
2023-11-01T12:17:34.795Z,86.67
2023-11-01T12:20:04.741Z,86.33
2023-11-01T12:22:38.651Z,86.50
2023-11-01T12:25:09.892Z,86.78
2023-11-01T12:27:41.620Z,86.90
2023-11-01T12:30:23.826Z,86.71
2023-11-01T12:32:54.539Z,86.73
2023-11-01T12:35:24.406Z,86.25
2023-11-01T12:37:54.213Z,85.94
2023-11-01T12:40:28.061Z,85.67
2023-11-01T12:43:11.300Z,85.13
2023-11-01T12:45:43.750Z,84.92
2023-11-01T12:48:13.825Z,84.58
2023-11-01T12:50:43.714Z,84.64
2023-11-01T12:53:13.959Z,84.44
2023-11-01T12:55:43.782Z,84.01
2023-11-01T12:58:16.558Z,83.86
2023-11-01T13:00:49.042Z,84.13
2023-11-01T13:03:18.982Z,84.53
2023-11-01T13:05:49.204Z,84.43
2023-11-01T13:08:19.533Z,83.92
2023-11-01T13:10:49.323Z,84.26
2023-11-01T13:13:19.287Z,84.03
2023-11-01T13:15:51.742Z,84.21
2023-11-01T13:18:21.673Z,84.50
2023-11-01T13:20:51.838Z,84.21
2023-11-01T13:23:21.629Z,84.53
2023-11-01T13:25:51.709Z,85.21
2023-11-01T13:28:22.075Z,85.33
2023-11-01T13:30:54.581Z,85.55
2023-11-01T13:33:24.439Z,85.68
2023-11-01T13:35:54.406Z,85.60
2023-11-01T13:38:24.171Z,85.91
2023-11-01T13:40:53.940Z,86.23
2023-11-01T13:43:23.710Z,86.10
2023-11-01T13:45:56.293Z,86.38
2023-11-01T13:48:26.211Z,86.75
2023-11-01T13:50:56.421Z,86.74
2023-11-01T13:53:27.002Z,86.76
2023-11-01T13:55:56.798Z,86.96
2023-11-01T13:58:27.927Z,86.40
2023-11-01T14:01:01.755Z,86.88
2023-11-01T14:03:33.771Z,87.05
2023-11-01T14:06:03.909Z,87.27
2023-11-01T14:08:33.944Z,86.86
2023-11-01T14:11:03.905Z,87.04
2023-11-01T14:13:33.716Z,86.80
2023-11-01T14:16:06.269Z,87.11
2023-11-01T14:18:36.111Z,87.45
2023-11-01T14:21:06.394Z,87.64
2023-11-01T14:23:36.240Z,87.90
2023-11-01T14:26:06.137Z,87.98
2023-11-01T14:28:35.955Z,87.81
2023-11-01T14:31:08.352Z,88.11
2023-11-01T14:33:38.537Z,87.85
2023-11-01T14:36:09.934Z,87.77
2023-11-01T14:38:39.756Z,88.16
2023-11-01T14:41:09.647Z,88.06
2023-11-01T14:43:39.444Z,88.11
2023-11-01T14:46:12.034Z,88.44
2023-11-01T14:48:44.535Z,88.56
2023-11-01T14:51:14.451Z,88.55
2023-11-01T14:53:44.275Z,88.57
2023-11-01T14:56:17.792Z,88.57
2023-11-01T14:58:50.114Z,88.47
2023-11-01T15:01:22.673Z,88.56
2023-11-01T15:03:52.827Z,88.57
2023-11-01T15:06:22.694Z,88.55
2023-11-01T15:08:52.634Z,88.54
2023-11-01T15:11:22.588Z,88.66
2023-11-01T15:13:52.737Z,88.78
2023-11-01T15:16:25.174Z,88.87
2023-11-01T15:18:54.959Z,88.47
2023-11-01T15:21:24.872Z,88.50
2023-11-01T15:23:54.689Z,88.88
2023-11-01T15:26:26.011Z,88.76
2023-11-01T15:28:56.658Z,88.73
2023-11-01T15:31:29.025Z,88.89
2023-11-01T15:34:00.125Z,88.76
2023-11-01T15:36:30.079Z,88.67
2023-11-01T15:39:00.035Z,88.81
2023-11-01T15:41:29.944Z,88.81
2023-11-01T15:43:59.732Z,88.88
2023-11-01T15:46:32.359Z,88.60
2023-11-01T15:49:02.257Z,88.51
2023-11-01T15:51:32.058Z,88.51
2023-11-01T15:54:01.886Z,88.42
2023-11-01T15:56:31.694Z,88.21
2023-11-01T15:59:01.795Z,88.23
2023-11-01T16:01:34.206Z,87.96
2023-11-01T16:04:04.292Z,88.19
2023-11-01T16:06:34.490Z,87.89
2023-11-01T16:09:05.636Z,87.82
2023-11-01T16:11:35.692Z,87.97
2023-11-01T16:14:06.177Z,87.59
2023-11-01T16:16:38.922Z,87.75
2023-11-01T16:19:09.357Z,87.63
2023-11-01T16:21:39.162Z,87.25
2023-11-01T16:24:10.003Z,87.23
2023-11-01T16:26:39.790Z,87.56
2023-11-01T16:29:09.607Z,87.94
2023-11-01T16:31:42.031Z,87.98
2023-11-01T16:34:11.952Z,88.66
2023-11-01T16:36:41.737Z,88.74
2023-11-01T16:39:11.664Z,89.36
2023-11-01T16:41:42.072Z,89.16
2023-11-01T16:44:11.980Z,88.95
2023-11-01T16:46:44.345Z,88.72
2023-11-01T16:49:14.894Z,88.90
2023-11-01T16:51:47.125Z,88.60
2023-11-01T16:54:19.695Z,88.38
2023-11-01T16:56:49.750Z,88.04
2023-11-01T16:59:19.822Z,87.58
2023-11-01T17:01:52.333Z,87.30
2023-11-01T17:04:22.240Z,87.18
2023-11-01T17:06:52.065Z,86.79
2023-11-01T17:09:21.940Z,86.51
2023-11-01T17:11:52.416Z,86.15
2023-11-01T17:14:22.203Z,85.82
2023-11-01T17:16:54.876Z,85.52
2023-11-01T17:19:24.649Z,85.23
2023-11-01T17:21:55.121Z,84.90
2023-11-01T17:24:27.758Z,84.83
2023-11-01T17:26:58.881Z,84.68
2023-11-01T17:29:33.574Z,84.37
2023-11-01T17:32:06.282Z,84.13
2023-11-01T17:34:36.144Z,83.87
2023-11-01T17:37:07.166Z,83.74
2023-11-01T17:39:41.574Z,83.81
2023-11-01T17:42:12.636Z,84.17
2023-11-01T17:44:45.761Z,84.11
2023-11-01T17:47:27.222Z,84.57
2023-11-01T17:50:01.684Z,85.23
2023-11-01T17:52:37.254Z,85.47
2023-11-01T17:55:09.682Z,85.71
2023-11-01T17:57:41.109Z,85.59
2023-11-01T18:00:12.092Z,85.58
2023-11-01T18:03:26.824Z,85.41
2023-11-01T18:06:10.501Z,85.61
2023-11-01T18:08:41.406Z,85.43
2023-11-01T18:11:12.957Z,85.17
2023-11-01T18:13:43.934Z,84.82
2023-11-01T18:16:14.050Z,84.76
2023-11-01T18:18:42.990Z,85.04
2023-11-01T18:21:19.608Z,84.94
2023-11-01T18:23:55.062Z,85.08
2023-11-01T18:26:25.289Z,85.13
2023-11-01T18:28:56.596Z,85.13
2023-11-01T18:31:29.061Z,84.98
2023-11-01T18:34:02.860Z,85.32
2023-11-01T18:36:41.450Z,85.33
2023-11-01T18:39:13.200Z,85.58
2023-11-01T18:41:45.015Z,85.64
2023-11-01T18:44:26.544Z,85.57
2023-11-01T18:46:56.783Z,85.70
2023-11-01T18:50:05.758Z,85.87
2023-11-01T18:52:38.233Z,85.97
2023-11-01T18:55:11.164Z,86.32
2023-11-01T18:57:41.527Z,86.37
2023-11-01T19:00:12.710Z,86.07
2023-11-01T19:03:08.636Z,85.99
2023-11-01T19:05:39.080Z,85.95
2023-11-01T19:08:11.620Z,85.61
2023-11-01T19:10:42.716Z,85.58
2023-11-01T19:13:13.842Z,85.15
2023-11-01T19:16:25.197Z,85.02
2023-11-01T19:18:56.407Z,84.79
2023-11-01T19:21:26.600Z,84.88
2023-11-01T19:23:59.397Z,84.73
2023-11-01T19:26:30.485Z,85.14
2023-11-01T19:29:00.458Z,85.43
2023-11-01T19:31:33.324Z,85.61
2023-11-01T19:34:03.297Z,86.00
2023-11-01T19:36:30.685Z,86.59
2023-11-01T19:39:03.358Z,86.55
2023-11-01T19:41:33.285Z,86.93
2023-11-01T19:44:04.786Z,87.14
2023-11-01T19:46:37.838Z,87.55
2023-11-01T19:49:07.973Z,87.82
2023-11-01T19:51:38.040Z,88.01
2023-11-01T19:54:11.441Z,88.25
2023-11-01T19:56:41.554Z,88.40
2023-11-01T19:59:12.671Z,88.26
2023-11-01T20:01:42.616Z,88.31
2023-11-01T20:04:12.387Z,88.50
2023-11-01T20:06:42.476Z,88.59
2023-11-01T20:09:15.108Z,88.93
2023-11-01T20:11:45.080Z,89.30
2023-11-01T20:14:18.725Z,89.68
2023-11-01T20:16:48.615Z,90.34
2023-11-01T20:19:19.105Z,90.67
2023-11-01T20:21:48.947Z,90.97
2023-11-01T20:24:21.333Z,91.00
2023-11-01T20:26:51.644Z,91.07
2023-11-01T20:29:21.446Z,91.04
2023-11-01T20:31:51.706Z,91.09
2023-11-01T20:34:21.578Z,91.14
2023-11-01T20:36:51.360Z,91.08
2023-11-01T20:39:23.812Z,91.10
2023-11-01T20:41:53.733Z,91.05
2023-11-01T20:44:25.759Z,90.97
2023-11-01T20:46:55.803Z,91.20
2023-11-01T20:49:26.129Z,91.09
2023-11-01T20:51:55.908Z,91.17
2023-11-01T20:54:29.777Z,91.09
2023-11-01T20:56:59.544Z,91.32
2023-11-01T20:59:30.963Z,90.96
2023-11-01T21:02:01.137Z,90.90
2023-11-01T21:04:31.756Z,90.98
2023-11-01T21:07:04.157Z,90.97
2023-11-01T21:09:37.234Z,91.00
2023-11-01T21:12:07.304Z,91.14
2023-11-01T21:14:38.577Z,91.01
2023-11-01T21:17:09.710Z,90.97
2023-11-01T21:19:39.577Z,90.99
2023-11-01T21:22:09.952Z,90.91
2023-11-01T21:24:42.475Z,91.13
2023-11-01T21:27:12.275Z,90.81
2023-11-01T21:29:42.537Z,90.91
2023-11-01T21:32:12.402Z,90.70
2023-11-01T21:34:42.679Z,90.67
2023-11-01T21:37:12.701Z,90.60
2023-11-01T21:39:45.032Z,90.76
2023-11-01T21:42:15.537Z,90.64
2023-11-01T21:44:45.705Z,90.60
2023-11-01T21:47:16.419Z,90.66
2023-11-01T21:49:47.859Z,90.71
2023-11-01T21:52:22.025Z,90.60
2023-11-01T21:54:54.763Z,90.65
2023-11-01T21:57:29.388Z,90.71
2023-11-01T22:00:02.268Z,90.54
2023-11-01T22:02:49.803Z,90.53
2023-11-01T22:05:20.989Z,90.61
2023-11-01T22:07:53.255Z,90.52
2023-11-01T22:10:37.479Z,90.54
2023-11-01T22:13:07.576Z,90.50
2023-11-01T22:15:39.437Z,90.31
2023-11-01T22:18:09.575Z,90.08
2023-11-01T22:20:39.435Z,89.86
2023-11-01T22:23:09.255Z,89.65
2023-11-01T22:25:42.448Z,89.74
2023-11-01T22:28:12.921Z,89.16
2023-11-01T22:30:42.647Z,89.27
2023-11-01T22:33:15.078Z,89.35
2023-11-01T22:35:46.782Z,89.47
2023-11-01T22:38:15.363Z,89.71
2023-11-01T22:40:48.211Z,89.68
2023-11-01T22:43:19.464Z,89.89
2023-11-01T22:45:49.284Z,90.16
2023-11-01T22:48:19.598Z,90.37
2023-11-01T22:50:49.478Z,90.48
2023-11-01T22:53:21.050Z,90.68
2023-11-01T22:55:53.533Z,90.88
2023-11-01T22:58:23.315Z,91.33
2023-11-01T23:00:54.070Z,91.31
2023-11-01T23:03:23.910Z,91.15
2023-11-01T23:05:53.889Z,90.86
2023-11-01T23:08:23.677Z,90.97
2023-11-01T23:10:56.111Z,91.28
2023-11-01T23:13:23.311Z,91.44
2023-11-01T23:15:53.137Z,91.67
2023-11-01T23:18:22.992Z,91.75
2023-11-01T23:20:52.855Z,91.92
2023-11-01T23:23:23.837Z,92.15
2023-11-01T23:25:58.691Z,92.41
2023-11-01T23:28:42.458Z,92.52
2023-11-01T23:31:14.139Z,92.38
2023-11-01T23:33:44.676Z,92.96
2023-11-01T23:36:19.838Z,93.25
2023-11-01T23:38:56.447Z,93.47
2023-11-01T23:41:41.034Z,93.74
2023-11-01T23:44:10.966Z,93.97
2023-11-01T23:46:40.955Z,94.16
2023-11-01T23:49:10.923Z,94.26
2023-11-01T23:51:59.333Z,94.65
2023-11-01T23:54:30.677Z,94.96
2023-11-01T23:57:12.808Z,95.22
2023-11-01T23:59:43.943Z,95.28
